createdAt,value
2018-12-03T00:01:33.496Z,84.47
2018-12-03T00:02:37.610Z,83.94
2018-12-03T00:03:41.769Z,84.31
2018-12-03T00:04:45.814Z,84.24
2018-12-03T00:05:49.919Z,84.34
2018-12-03T00:06:54.150Z,84.42
2018-12-03T00:07:59.262Z,84.13
2018-12-03T00:09:03.442Z,84.24
2018-12-03T00:10:08.691Z,84.36
2018-12-03T00:11:12.771Z,84.73
2018-12-03T00:12:17.038Z,84.05
2018-12-03T00:13:21.274Z,84.39
2018-12-03T00:14:25.391Z,84.10
2018-12-03T00:15:29.796Z,84.14
2018-12-03T00:16:33.999Z,84.38
2018-12-03T00:17:38.189Z,84.78
2018-12-03T00:18:42.325Z,84.49
2018-12-03T00:19:46.646Z,84.60
2018-12-03T00:20:50.758Z,85.06
2018-12-03T00:21:54.913Z,84.59
2018-12-03T00:22:59.054Z,84.65
2018-12-03T00:24:03.344Z,84.63
2018-12-03T00:25:14.427Z,84.58
2018-12-03T00:26:18.554Z,84.45
2018-12-03T00:27:23.226Z,84.70
2018-12-03T00:28:27.455Z,84.30
2018-12-03T00:29:31.486Z,84.64
2018-12-03T00:30:35.664Z,84.62
2018-12-03T00:31:39.712Z,84.29
2018-12-03T00:32:43.991Z,84.37
2018-12-03T00:33:48.158Z,84.93
2018-12-03T00:34:52.312Z,84.22
2018-12-03T00:35:56.821Z,84.31
2018-12-03T00:37:00.944Z,84.79
2018-12-03T00:38:05.299Z,84.34
2018-12-03T00:39:09.766Z,84.25
2018-12-03T00:40:13.905Z,83.87
2018-12-03T00:41:18.048Z,84.28
2018-12-03T00:42:22.158Z,84.54
2018-12-03T00:43:26.237Z,84.31
2018-12-03T00:44:30.302Z,84.75
2018-12-03T00:45:34.280Z,84.47
2018-12-03T00:46:38.465Z,84.54
2018-12-03T00:47:42.586Z,84.50
2018-12-03T00:48:47.231Z,84.64
2018-12-03T00:49:51.524Z,84.78
2018-12-03T00:50:55.654Z,85.19
2018-12-03T00:51:59.768Z,84.89
2018-12-03T00:53:03.752Z,84.66
2018-12-03T00:54:07.805Z,84.87
2018-12-03T00:55:11.884Z,85.02
2018-12-03T00:56:16.044Z,85.05
2018-12-03T00:57:20.258Z,85.19
2018-12-03T00:58:24.375Z,85.40
2018-12-03T00:59:28.420Z,85.17
2018-12-03T01:00:32.521Z,84.72
2018-12-03T01:01:36.863Z,85.11
2018-12-03T01:02:40.940Z,85.05
2018-12-03T01:03:45.011Z,85.09
2018-12-03T01:04:49.096Z,85.17
2018-12-03T01:05:53.176Z,85.11
2018-12-03T01:06:57.324Z,85.39
2018-12-03T01:08:01.414Z,85.17
2018-12-03T01:09:08.194Z,85.16
2018-12-03T01:10:12.365Z,84.98
2018-12-03T01:11:16.397Z,84.59
2018-12-03T01:12:20.591Z,84.97
2018-12-03T01:13:24.642Z,84.87
2018-12-03T01:14:28.786Z,84.84
2018-12-03T01:15:32.950Z,85.11
2018-12-03T01:16:37.033Z,84.53
2018-12-03T01:17:41.129Z,84.34
2018-12-03T01:18:45.295Z,84.32
2018-12-03T01:19:49.381Z,84.45
2018-12-03T01:20:53.475Z,84.55
2018-12-03T01:21:57.558Z,84.63
2018-12-03T01:23:01.615Z,84.90
2018-12-03T01:24:05.771Z,84.62
2018-12-03T01:25:09.845Z,84.73
2018-12-03T01:26:14.341Z,84.38
2018-12-03T01:27:18.503Z,84.56
2018-12-03T01:28:22.737Z,85.05
2018-12-03T01:29:26.759Z,84.54
2018-12-03T01:30:30.922Z,84.71
2018-12-03T01:31:34.996Z,85.14
2018-12-03T01:32:39.575Z,84.64
2018-12-03T01:33:43.646Z,84.84
2018-12-03T01:34:47.843Z,84.75
2018-12-03T01:35:51.911Z,84.71
2018-12-03T01:36:55.895Z,84.45
2018-12-03T01:38:00.543Z,84.94
2018-12-03T01:39:06.064Z,85.02
2018-12-03T01:40:11.294Z,84.70
2018-12-03T01:41:15.391Z,84.93
2018-12-03T01:42:19.600Z,84.40
2018-12-03T01:43:23.741Z,84.71
2018-12-03T01:44:27.791Z,84.76
2018-12-03T01:45:31.875Z,84.40
2018-12-03T01:46:36.498Z,84.50
2018-12-03T01:47:40.613Z,84.83
2018-12-03T01:48:44.733Z,84.74
2018-12-03T01:49:49.024Z,84.63
2018-12-03T01:50:53.232Z,84.64
2018-12-03T01:51:57.291Z,84.55
2018-12-03T01:53:01.427Z,84.16
2018-12-03T01:54:05.689Z,84.37
2018-12-03T01:55:10.833Z,84.59
2018-12-03T01:56:14.918Z,84.43
2018-12-03T01:57:19.030Z,84.07
2018-12-03T01:58:23.089Z,84.17
2018-12-03T01:59:27.175Z,84.15
2018-12-03T02:00:38.003Z,84.28
2018-12-03T02:01:42.219Z,84.56
2018-12-03T02:02:46.283Z,84.19
2018-12-03T02:03:50.490Z,84.03
2018-12-03T02:04:54.471Z,84.20
2018-12-03T02:05:58.515Z,84.05
2018-12-03T02:07:02.591Z,84.19
2018-12-03T02:08:07.011Z,83.88
2018-12-03T02:09:11.119Z,83.98
2018-12-03T02:10:15.881Z,84.00
2018-12-03T02:11:19.975Z,83.84
2018-12-03T02:12:24.348Z,84.25
2018-12-03T02:13:28.540Z,83.72
2018-12-03T02:14:32.574Z,84.32
2018-12-03T02:15:36.608Z,84.36
2018-12-03T02:16:40.607Z,84.15
2018-12-03T02:17:44.795Z,84.25
2018-12-03T02:18:49.007Z,83.51
2018-12-03T02:19:53.105Z,84.21
2018-12-03T02:20:57.158Z,83.69
2018-12-03T02:22:01.214Z,83.79
2018-12-03T02:23:05.401Z,84.00
2018-12-03T02:24:09.495Z,83.94
2018-12-03T02:25:13.693Z,83.90
2018-12-03T02:26:18.092Z,84.10
2018-12-03T02:27:22.115Z,83.57
2018-12-03T02:28:26.311Z,83.63
2018-12-03T02:29:30.447Z,83.61
2018-12-03T02:30:34.550Z,83.90
2018-12-03T02:31:38.599Z,83.94
2018-12-03T02:32:43.043Z,83.63
2018-12-03T02:33:47.211Z,83.74
2018-12-03T02:34:51.373Z,83.60
2018-12-03T02:35:55.538Z,83.59
2018-12-03T02:36:59.624Z,83.67
2018-12-03T02:38:03.815Z,83.52
2018-12-03T02:39:08.990Z,83.27
2018-12-03T02:40:15.290Z,83.28
2018-12-03T02:41:19.413Z,83.58
2018-12-03T02:42:23.563Z,83.57
2018-12-03T02:43:27.611Z,83.23
2018-12-03T02:44:31.772Z,83.24
2018-12-03T02:45:35.928Z,83.12
2018-12-03T02:46:39.987Z,83.34
2018-12-03T02:47:44.507Z,82.70
2018-12-03T02:48:48.542Z,83.46
2018-12-03T02:49:52.988Z,83.53
2018-12-03T02:50:57.135Z,83.63
2018-12-03T02:52:01.300Z,83.87
2018-12-03T02:53:05.710Z,83.52
2018-12-03T02:54:09.872Z,83.31
2018-12-03T02:55:14.320Z,83.80
2018-12-03T02:56:18.472Z,83.17
2018-12-03T02:57:22.536Z,83.62
2018-12-03T02:58:26.763Z,83.37
2018-12-03T02:59:30.959Z,84.02
2018-12-03T03:00:38.745Z,83.75
2018-12-03T03:01:42.927Z,83.74
2018-12-03T03:02:47.227Z,83.89
2018-12-03T03:03:51.723Z,83.77
2018-12-03T03:04:55.968Z,83.74
2018-12-03T03:06:00.061Z,83.93
2018-12-03T03:07:04.275Z,83.71
2018-12-03T03:08:08.336Z,84.20
2018-12-03T03:09:12.583Z,83.79
2018-12-03T03:10:16.764Z,83.65
2018-12-03T03:11:20.922Z,84.05
2018-12-03T03:12:25.114Z,83.40
2018-12-03T03:13:29.370Z,83.62
2018-12-03T03:14:33.407Z,83.73
2018-12-03T03:15:37.584Z,84.21
2018-12-03T03:16:41.744Z,83.78
2018-12-03T03:17:46.000Z,83.76
2018-12-03T03:18:50.143Z,83.80
2018-12-03T03:19:54.263Z,83.80
2018-12-03T03:20:58.503Z,83.64
2018-12-03T03:22:02.730Z,83.57
2018-12-03T03:23:07.047Z,83.65
2018-12-03T03:24:11.284Z,83.46
2018-12-03T03:25:15.409Z,83.60
2018-12-03T03:26:19.506Z,83.87
2018-12-03T03:27:23.580Z,83.61
2018-12-03T03:28:27.667Z,83.99
2018-12-03T03:29:31.806Z,83.73
2018-12-03T03:30:35.990Z,83.96
2018-12-03T03:31:40.102Z,83.78
2018-12-03T03:32:44.405Z,83.65
2018-12-03T03:33:48.663Z,83.82
2018-12-03T03:34:52.943Z,84.03
2018-12-03T03:35:57.070Z,83.73
2018-12-03T03:37:01.269Z,83.92
2018-12-03T03:38:05.410Z,84.10
2018-12-03T03:39:09.894Z,83.50
2018-12-03T03:40:14.988Z,84.11
2018-12-03T03:41:19.062Z,83.93
2018-12-03T03:42:23.193Z,84.24
2018-12-03T03:43:27.391Z,83.87
2018-12-03T03:44:31.539Z,83.94
2018-12-03T03:45:36.117Z,84.19
2018-12-03T03:46:40.283Z,83.57
2018-12-03T03:47:44.415Z,83.72
2018-12-03T03:48:48.467Z,83.39
2018-12-03T03:49:52.854Z,83.72
2018-12-03T03:50:56.986Z,83.60
2018-12-03T03:52:01.164Z,84.10
2018-12-03T03:53:05.480Z,83.52
2018-12-03T03:54:09.580Z,83.64
2018-12-03T03:55:13.797Z,83.67
2018-12-03T03:56:18.047Z,83.18
2018-12-03T03:57:22.150Z,83.69
2018-12-03T03:58:26.329Z,83.42
2018-12-03T03:59:30.407Z,83.70
2018-12-03T04:00:34.600Z,83.24
2018-12-03T04:01:38.749Z,83.67
2018-12-03T04:02:42.953Z,83.37
2018-12-03T04:03:46.972Z,83.53
2018-12-03T04:04:51.018Z,82.96
2018-12-03T04:05:55.147Z,82.90
2018-12-03T04:06:59.333Z,83.24
2018-12-03T04:08:03.547Z,82.99
2018-12-03T04:09:07.839Z,83.28
2018-12-03T04:10:12.998Z,83.30
2018-12-03T04:11:17.106Z,82.46
2018-12-03T04:12:21.185Z,83.02
2018-12-03T04:13:25.337Z,82.41
2018-12-03T04:14:29.514Z,82.92
2018-12-03T04:15:33.795Z,82.26
2018-12-03T04:16:37.875Z,82.66
2018-12-03T04:17:42.021Z,82.36
2018-12-03T04:18:46.232Z,82.21
2018-12-03T04:19:50.457Z,82.48
2018-12-03T04:20:54.628Z,82.83
2018-12-03T04:21:58.772Z,82.42
2018-12-03T04:23:03.039Z,82.83
2018-12-03T04:24:07.586Z,82.18
2018-12-03T04:25:12.199Z,82.53
2018-12-03T04:26:16.183Z,82.14
2018-12-03T04:27:20.368Z,82.14
2018-12-03T04:28:24.460Z,82.61
2018-12-03T04:29:28.617Z,82.06
2018-12-03T04:30:32.841Z,82.39
2018-12-03T04:31:36.968Z,82.22
2018-12-03T04:32:41.258Z,82.06
2018-12-03T04:33:45.429Z,82.35
2018-12-03T04:34:49.554Z,81.77
2018-12-03T04:35:53.715Z,81.69
2018-12-03T04:36:57.879Z,82.16
2018-12-03T04:38:01.937Z,82.05
2018-12-03T04:39:08.016Z,81.76
2018-12-03T04:40:13.388Z,81.75
2018-12-03T04:41:17.417Z,81.74
2018-12-03T04:42:21.693Z,81.97
2018-12-03T04:43:25.723Z,81.29
2018-12-03T04:44:29.861Z,81.44
2018-12-03T04:45:33.903Z,81.33
2018-12-03T04:46:38.030Z,81.17
2018-12-03T04:47:42.177Z,81.52
2018-12-03T04:48:46.444Z,81.29
2018-12-03T04:49:50.417Z,81.71
2018-12-03T04:50:54.806Z,81.01
2018-12-03T04:51:58.903Z,81.25
2018-12-03T04:53:03.207Z,81.29
2018-12-03T04:54:07.266Z,81.01
2018-12-03T04:55:11.928Z,81.37
2018-12-03T04:56:15.968Z,80.82
2018-12-03T04:57:20.057Z,81.38
2018-12-03T04:58:24.170Z,80.86
2018-12-03T04:59:28.253Z,80.73
2018-12-03T05:00:39.331Z,81.25
2018-12-03T05:01:43.439Z,81.26
2018-12-03T05:02:48.822Z,81.30
2018-12-03T05:03:52.901Z,80.55
2018-12-03T05:04:57.005Z,80.93
2018-12-03T05:06:01.171Z,80.54
2018-12-03T05:07:05.264Z,80.85
2018-12-03T05:08:09.334Z,80.67
2018-12-03T05:09:13.422Z,81.25
2018-12-03T05:10:18.606Z,81.02
2018-12-03T05:11:22.696Z,80.57
2018-12-03T05:12:26.750Z,80.95
2018-12-03T05:13:30.914Z,80.84
2018-12-03T05:14:34.999Z,81.07
2018-12-03T05:15:39.100Z,81.10
2018-12-03T05:16:43.186Z,80.64
2018-12-03T05:17:47.256Z,81.14
2018-12-03T05:18:51.488Z,80.98
2018-12-03T05:19:55.562Z,81.13
2018-12-03T05:20:59.576Z,80.62
2018-12-03T05:22:03.695Z,80.78
2018-12-03T05:23:07.850Z,80.64
2018-12-03T05:24:12.010Z,80.43
2018-12-03T05:25:19.179Z,81.20
2018-12-03T05:26:20.731Z,80.64
2018-12-03T05:27:24.909Z,80.83
2018-12-03T05:28:29.026Z,81.01
2018-12-03T05:29:33.091Z,81.12
2018-12-03T05:30:37.227Z,81.03
2018-12-03T05:31:41.359Z,80.75
2018-12-03T05:32:46.088Z,80.48
2018-12-03T05:33:50.218Z,81.03
2018-12-03T05:34:54.360Z,80.82
2018-12-03T05:35:58.527Z,80.80
2018-12-03T05:37:02.550Z,80.82
2018-12-03T05:38:06.747Z,80.85
2018-12-03T05:39:11.016Z,80.93
2018-12-03T05:40:18.406Z,80.60
2018-12-03T05:41:22.499Z,80.64
2018-12-03T05:42:26.549Z,80.38
2018-12-03T05:43:30.557Z,80.52
2018-12-03T05:44:34.626Z,80.84
2018-12-03T05:45:38.704Z,80.43
2018-12-03T05:46:42.741Z,80.56
2018-12-03T05:47:46.811Z,80.51
2018-12-03T05:48:50.939Z,80.39
2018-12-03T05:49:55.055Z,80.37
2018-12-03T05:50:59.393Z,80.30
2018-12-03T05:52:03.623Z,80.93
2018-12-03T05:53:07.907Z,80.28
2018-12-03T05:54:12.005Z,80.79
2018-12-03T05:55:16.385Z,80.30
2018-12-03T05:56:20.503Z,80.63
2018-12-03T05:57:24.635Z,80.27
2018-12-03T05:58:29.329Z,80.34
2018-12-03T05:59:33.801Z,80.15
2018-12-03T06:00:37.854Z,80.27
2018-12-03T06:01:41.888Z,80.22
2018-12-03T06:02:46.034Z,80.23
2018-12-03T06:03:50.155Z,80.19
2018-12-03T06:04:54.315Z,80.13
2018-12-03T06:05:58.611Z,80.62
2018-12-03T06:07:02.841Z,80.77
2018-12-03T06:08:07.443Z,80.38
2018-12-03T06:09:11.672Z,80.30
2018-12-03T06:10:17.011Z,80.03
2018-12-03T06:11:21.192Z,79.99
2018-12-03T06:12:25.212Z,80.43
2018-12-03T06:13:29.527Z,80.50
2018-12-03T06:14:33.728Z,79.88
2018-12-03T06:15:37.884Z,79.99
2018-12-03T06:16:42.133Z,79.97
2018-12-03T06:17:47.126Z,79.79
2018-12-03T06:18:51.299Z,79.64
2018-12-03T06:19:55.376Z,79.69
2018-12-03T06:20:59.459Z,80.22
2018-12-03T06:22:03.582Z,79.91
2018-12-03T06:23:07.554Z,80.31
2018-12-03T06:24:11.634Z,79.79
2018-12-03T06:25:18.024Z,79.78
2018-12-03T06:26:22.203Z,80.32
2018-12-03T06:27:26.449Z,79.71
2018-12-03T06:28:30.524Z,79.70
2018-12-03T06:29:34.892Z,79.80
2018-12-03T06:30:39.153Z,80.20
2018-12-03T06:31:43.306Z,79.95
2018-12-03T06:32:47.339Z,80.18
2018-12-03T06:33:51.464Z,79.85
2018-12-03T06:34:55.630Z,80.24
2018-12-03T06:35:59.856Z,80.13
2018-12-03T06:37:03.919Z,79.73
2018-12-03T06:38:08.075Z,79.72
2018-12-03T06:39:12.240Z,79.70
2018-12-03T06:40:17.460Z,80.41
2018-12-03T06:41:21.566Z,79.89
2018-12-03T06:42:25.800Z,79.75
2018-12-03T06:43:29.989Z,79.96
2018-12-03T06:44:34.148Z,79.74
2018-12-03T06:45:38.815Z,79.58
2018-12-03T06:46:42.963Z,79.86
2018-12-03T06:48:06.860Z,79.85
2018-12-03T06:49:11.041Z,80.06
2018-12-03T06:50:15.187Z,80.15
2018-12-03T06:51:19.691Z,80.12
2018-12-03T06:52:23.878Z,79.94
2018-12-03T06:53:28.065Z,79.69
2018-12-03T06:54:32.362Z,79.65
2018-12-03T06:55:36.488Z,79.58
2018-12-03T06:56:40.499Z,79.63
2018-12-03T06:57:44.596Z,79.24
2018-12-03T06:58:48.743Z,79.37
2018-12-03T06:59:52.903Z,79.30
2018-12-03T07:00:56.947Z,79.18
2018-12-03T07:02:01.011Z,79.14
2018-12-03T07:03:05.587Z,79.06
2018-12-03T07:04:09.684Z,79.02
2018-12-03T07:05:13.939Z,78.71
2018-12-03T07:06:18.104Z,79.33
2018-12-03T07:07:22.283Z,79.04
2018-12-03T07:08:26.430Z,78.98
2018-12-03T07:09:30.558Z,78.88
2018-12-03T07:10:35.065Z,78.67
2018-12-03T07:11:39.237Z,78.73
2018-12-03T07:12:43.950Z,78.57
2018-12-03T07:13:47.972Z,79.15
2018-12-03T07:14:52.053Z,78.63
2018-12-03T07:15:57.210Z,78.75
2018-12-03T07:17:01.299Z,78.76
2018-12-03T07:18:06.373Z,78.88
2018-12-03T07:19:10.407Z,79.16
2018-12-03T07:20:14.958Z,78.59
2018-12-03T07:21:19.089Z,78.61
2018-12-03T07:22:23.336Z,78.65
2018-12-03T07:23:27.450Z,78.98
2018-12-03T07:24:31.595Z,78.88
2018-12-03T07:25:35.826Z,78.94
2018-12-03T07:26:39.945Z,79.19
2018-12-03T07:27:44.250Z,78.79
2018-12-03T07:28:48.288Z,79.34
2018-12-03T07:29:53.069Z,79.33
2018-12-03T07:30:56.589Z,78.96
2018-12-03T07:32:01.110Z,79.58
2018-12-03T07:33:05.351Z,79.13
2018-12-03T07:34:09.503Z,79.52
2018-12-03T07:35:13.627Z,78.99
2018-12-03T07:36:17.751Z,79.19
2018-12-03T07:37:22.003Z,79.36
2018-12-03T07:38:26.438Z,79.30
2018-12-03T07:39:30.624Z,79.30
2018-12-03T07:40:34.821Z,79.25
2018-12-03T07:41:38.934Z,79.20
2018-12-03T07:42:43.452Z,79.22
2018-12-03T07:43:47.580Z,79.34
2018-12-03T07:44:51.765Z,79.49
2018-12-03T07:45:55.863Z,79.51
2018-12-03T07:46:59.977Z,79.43
2018-12-03T07:48:04.077Z,79.68
2018-12-03T07:49:08.716Z,79.55
2018-12-03T07:50:14.158Z,79.54
2018-12-03T07:51:18.220Z,79.59
2018-12-03T07:52:22.569Z,79.50
2018-12-03T07:53:26.740Z,79.58
2018-12-03T07:54:31.097Z,79.82
2018-12-03T07:55:35.201Z,79.53
2018-12-03T07:56:39.243Z,79.36
2018-12-03T07:57:45.962Z,79.71
2018-12-03T07:58:50.311Z,79.54
2018-12-03T07:59:54.467Z,79.64
2018-12-03T08:00:58.839Z,79.51
2018-12-03T08:02:03.659Z,79.59
2018-12-03T08:03:14.648Z,79.58
2018-12-03T08:04:18.852Z,79.48
2018-12-03T08:05:23.019Z,79.39
2018-12-03T08:06:27.822Z,79.60
2018-12-03T08:07:31.983Z,79.54
2018-12-03T08:08:36.043Z,79.65
2018-12-03T08:09:40.100Z,79.47
2018-12-03T08:10:46.720Z,79.63
2018-12-03T08:11:50.883Z,79.35
2018-12-03T08:12:55.177Z,79.72
2018-12-03T08:13:59.311Z,79.65
2018-12-03T08:15:03.503Z,79.43
2018-12-03T08:16:07.803Z,79.57
2018-12-03T08:17:12.130Z,79.58
2018-12-03T08:18:17.947Z,79.62
2018-12-03T08:19:22.070Z,79.68
2018-12-03T08:20:33.075Z,79.63
2018-12-03T08:21:37.184Z,79.89
2018-12-03T08:22:41.815Z,79.64
2018-12-03T08:23:53.500Z,79.85
2018-12-03T08:24:57.734Z,79.95
2018-12-03T08:26:03.041Z,80.03
2018-12-03T08:27:07.205Z,79.89
2018-12-03T08:28:11.338Z,79.89
2018-12-03T08:29:15.482Z,79.62
2018-12-03T08:30:19.828Z,79.73
2018-12-03T08:31:24.318Z,79.83
2018-12-03T08:32:28.506Z,79.49
2018-12-03T08:33:32.701Z,79.58
2018-12-03T08:34:37.000Z,79.44
2018-12-03T08:35:41.068Z,80.06
2018-12-03T08:36:45.390Z,79.97
2018-12-03T08:37:49.512Z,79.87
2018-12-03T08:38:53.622Z,79.86
2018-12-03T08:39:57.993Z,79.95
2018-12-03T08:41:05.662Z,79.52
2018-12-03T08:42:09.712Z,79.80
2018-12-03T08:43:13.901Z,79.82
2018-12-03T08:44:18.128Z,79.45
2018-12-03T08:45:23.464Z,79.53
2018-12-03T08:46:27.729Z,79.33
2018-12-03T08:47:31.902Z,79.39
2018-12-03T08:48:39.145Z,79.25
2018-12-03T08:49:43.290Z,79.41
2018-12-03T08:50:47.599Z,79.28
2018-12-03T08:51:51.638Z,79.46
2018-12-03T08:52:57.161Z,79.51
2018-12-03T08:54:01.337Z,79.01
2018-12-03T08:55:09.215Z,79.75
2018-12-03T08:56:13.427Z,79.60
2018-12-03T08:57:17.437Z,79.10
2018-12-03T08:58:21.563Z,79.69
2018-12-03T08:59:32.241Z,79.73
2018-12-03T09:00:36.301Z,79.38
2018-12-03T09:01:40.896Z,79.26
2018-12-03T09:02:46.311Z,79.60
2018-12-03T09:03:53.786Z,79.39
2018-12-03T09:04:57.915Z,79.22
2018-12-03T09:06:07.217Z,79.01
2018-12-03T09:07:11.435Z,78.92
2018-12-03T09:08:15.554Z,79.44
2018-12-03T09:09:19.753Z,78.83
2018-12-03T09:10:24.032Z,78.93
2018-12-03T09:11:28.085Z,78.59
2018-12-03T09:12:32.164Z,78.73
2018-12-03T09:13:36.212Z,78.86
2018-12-03T09:14:40.380Z,78.73
2018-12-03T09:15:45.487Z,78.33
2018-12-03T09:16:49.648Z,78.12
2018-12-03T09:17:53.742Z,77.92
2018-12-03T09:18:57.848Z,77.74
2018-12-03T09:20:01.976Z,77.82
2018-12-03T09:21:14.878Z,78.09
2018-12-03T09:22:19.025Z,77.83
2018-12-03T09:23:23.235Z,78.28
2018-12-03T09:24:27.229Z,77.57
2018-12-03T09:25:31.410Z,78.25
2018-12-03T09:26:39.971Z,77.82
2018-12-03T09:27:44.051Z,77.54
2018-12-03T09:28:48.099Z,77.89
2018-12-03T09:29:52.312Z,77.44
2018-12-03T09:30:56.468Z,77.69
2018-12-03T09:32:01.175Z,77.47
2018-12-03T09:33:05.584Z,77.72
2018-12-03T09:34:09.631Z,77.71
2018-12-03T09:35:13.914Z,77.41
2018-12-03T09:36:18.159Z,76.89
2018-12-03T09:37:22.345Z,76.74
2018-12-03T09:38:26.522Z,77.03
2018-12-03T09:39:30.663Z,77.04
2018-12-03T09:40:34.901Z,77.07
2018-12-03T09:41:39.278Z,77.21
2018-12-03T09:42:43.560Z,76.47
2018-12-03T09:43:47.670Z,77.19
2018-12-03T09:44:51.860Z,76.50
2018-12-03T09:45:56.025Z,76.48
2018-12-03T09:47:00.075Z,76.61
2018-12-03T09:48:04.278Z,76.00
2018-12-03T09:49:08.643Z,76.48
2018-12-03T09:50:23.939Z,75.83
2018-12-03T09:51:32.083Z,76.37
2018-12-03T09:52:36.231Z,75.74
2018-12-03T09:53:41.042Z,75.81
2018-12-03T09:54:45.296Z,75.65
2018-12-03T09:55:49.452Z,75.59
2018-12-03T09:56:54.979Z,75.82
2018-12-03T09:58:08.788Z,75.72
2018-12-03T09:59:14.467Z,75.53
2018-12-03T10:00:18.829Z,75.55
2018-12-03T10:01:22.910Z,75.13
2018-12-03T10:02:27.850Z,75.45
2018-12-03T10:03:38.155Z,75.15
2018-12-03T10:04:44.971Z,75.78
2018-12-03T10:05:55.122Z,75.41
2018-12-03T10:06:59.410Z,75.18
2018-12-03T10:08:03.627Z,75.29
2018-12-03T10:09:12.108Z,74.84
2018-12-03T10:10:16.304Z,75.11
2018-12-03T10:11:20.411Z,74.71
2018-12-03T10:12:24.471Z,75.10
2018-12-03T10:13:29.427Z,74.89
2018-12-03T10:14:33.824Z,74.65
2018-12-03T10:15:38.541Z,74.99
2018-12-03T10:16:42.739Z,74.62
2018-12-03T10:17:49.990Z,74.25
2018-12-03T10:18:54.154Z,74.83
2018-12-03T10:19:58.354Z,74.99
2018-12-03T10:21:02.808Z,74.57
2018-12-03T10:22:07.891Z,74.49
2018-12-03T10:23:12.146Z,74.72
2018-12-03T10:24:16.760Z,74.19
2018-12-03T10:25:20.950Z,74.05
2018-12-03T10:26:25.146Z,73.96
2018-12-03T10:27:29.286Z,74.19
2018-12-03T10:28:33.369Z,73.74
2018-12-03T10:29:37.595Z,73.73
2018-12-03T10:30:41.676Z,73.66
2018-12-03T10:31:45.826Z,74.29
2018-12-03T10:32:51.505Z,73.82
2018-12-03T10:33:55.593Z,74.22
2018-12-03T10:34:59.817Z,74.19
2018-12-03T10:36:06.794Z,73.93
2018-12-03T10:37:10.961Z,73.40
2018-12-03T10:38:25.475Z,73.68
2018-12-03T10:39:32.334Z,73.34
2018-12-03T10:40:40.706Z,73.83
2018-12-03T10:41:45.228Z,73.90
2018-12-03T10:42:49.957Z,73.21
2018-12-03T10:43:56.034Z,73.07
2018-12-03T10:45:00.196Z,73.66
2018-12-03T10:46:04.442Z,73.79
2018-12-03T10:47:08.884Z,72.97
2018-12-03T10:48:13.115Z,72.99
2018-12-03T10:49:17.257Z,73.33
2018-12-03T10:50:22.403Z,73.33
2018-12-03T10:51:25.794Z,72.88
2018-12-03T10:52:30.018Z,73.27
2018-12-03T10:53:34.119Z,73.18
2018-12-03T10:54:41.401Z,73.07
2018-12-03T10:55:45.594Z,72.88
2018-12-03T10:56:49.740Z,72.90
2018-12-03T10:57:53.941Z,73.32
2018-12-03T10:58:58.184Z,72.60
2018-12-03T11:00:02.726Z,72.57
2018-12-03T11:01:13.927Z,72.66
2018-12-03T11:02:26.353Z,72.67
2018-12-03T11:03:35.791Z,72.70
2018-12-03T11:04:43.216Z,72.49
2018-12-03T11:05:53.091Z,72.80
2018-12-03T11:06:57.251Z,72.51
2018-12-03T11:08:01.421Z,72.66
2018-12-03T11:09:07.662Z,72.56
2018-12-03T11:10:11.759Z,73.39
2018-12-03T11:11:16.038Z,72.95
2018-12-03T11:12:20.913Z,72.63
2018-12-03T11:13:25.044Z,73.16
2018-12-03T11:14:29.332Z,72.71
2018-12-03T11:15:33.458Z,73.11
2018-12-03T11:16:38.956Z,73.37
2018-12-03T11:17:43.078Z,72.75
2018-12-03T11:18:52.431Z,72.67
2018-12-03T11:19:56.678Z,73.27
2018-12-03T11:21:05.574Z,72.76
2018-12-03T11:22:09.774Z,73.23
2018-12-03T11:23:21.145Z,73.25
2018-12-03T11:24:25.227Z,72.55
2018-12-03T11:25:32.055Z,73.08
2018-12-03T11:26:39.342Z,72.64
2018-12-03T11:27:45.215Z,72.38
2018-12-03T11:28:52.755Z,72.91
2018-12-03T11:29:56.850Z,72.77
2018-12-03T11:31:01.093Z,72.72
2018-12-03T11:32:05.146Z,72.57
2018-12-03T11:33:09.331Z,72.51
2018-12-03T11:34:13.427Z,72.16
2018-12-03T11:35:23.797Z,72.01
2018-12-03T11:36:35.181Z,71.68
2018-12-03T11:37:41.587Z,71.99
2018-12-03T11:39:56.481Z,71.59
2018-12-03T11:41:00.505Z,71.90
2018-12-03T11:42:05.682Z,71.67
2018-12-03T11:43:09.857Z,72.05
2018-12-03T11:44:13.940Z,72.01
2018-12-03T11:45:18.061Z,71.67
2018-12-03T11:46:22.355Z,71.31
2018-12-03T11:47:27.206Z,71.39
2018-12-03T11:48:31.365Z,71.64
2018-12-03T11:49:35.564Z,71.69
2018-12-03T11:50:39.982Z,71.51
2018-12-03T11:51:44.024Z,71.34
2018-12-03T11:52:48.193Z,71.37
2018-12-03T11:53:52.536Z,71.28
2018-12-03T11:54:56.840Z,71.18
2018-12-03T11:56:00.959Z,71.10
2018-12-03T11:57:05.911Z,70.83
2018-12-03T11:58:10.101Z,70.89
2018-12-03T11:59:16.499Z,70.51
2018-12-03T12:00:20.565Z,70.32
2018-12-03T12:01:24.774Z,70.38
2018-12-03T12:02:28.847Z,70.13
2018-12-03T12:03:36.534Z,70.62
2018-12-03T12:04:40.695Z,70.17
2018-12-03T12:05:44.957Z,70.55
2018-12-03T12:06:49.003Z,70.09
2018-12-03T12:07:53.171Z,70.44
2018-12-03T12:08:57.547Z,69.58
2018-12-03T12:10:01.743Z,70.03
2018-12-03T12:11:06.432Z,70.19
2018-12-03T12:12:10.563Z,69.93
2018-12-03T12:13:14.684Z,70.33
2018-12-03T12:14:21.767Z,70.56
2018-12-03T12:15:25.906Z,70.04
2018-12-03T12:16:30.278Z,70.46
2018-12-03T12:17:34.412Z,70.41
2018-12-03T12:18:38.839Z,70.47
2018-12-03T12:19:42.970Z,70.15
2018-12-03T12:20:47.068Z,70.63
2018-12-03T12:21:51.255Z,70.38
2018-12-03T12:22:55.412Z,70.56
2018-12-03T12:23:59.724Z,70.60
2018-12-03T12:25:03.846Z,70.14
2018-12-03T12:26:08.028Z,70.12
2018-12-03T12:27:12.215Z,70.68
2018-12-03T12:28:16.346Z,70.25
2018-12-03T12:29:21.429Z,70.14
2018-12-03T12:30:25.514Z,70.80
2018-12-03T12:31:29.586Z,70.12
2018-12-03T12:32:33.849Z,70.51
2018-12-03T12:33:38.002Z,70.39
2018-12-03T12:34:42.179Z,70.21
2018-12-03T12:35:46.302Z,70.21
2018-12-03T12:36:50.604Z,70.55
2018-12-03T12:37:56.818Z,70.09
2018-12-03T12:38:59.194Z,70.70
2018-12-03T12:40:03.348Z,70.19
2018-12-03T12:41:07.626Z,70.10
2018-12-03T12:42:11.725Z,70.26
2018-12-03T12:43:15.911Z,70.64
2018-12-03T12:44:20.296Z,70.15
2018-12-03T12:45:31.343Z,70.85
2018-12-03T12:46:36.284Z,70.26
2018-12-03T12:47:40.488Z,70.72
2018-12-03T12:48:44.719Z,70.98
2018-12-03T12:49:49.159Z,70.76
2018-12-03T12:50:53.568Z,71.06
2018-12-03T12:51:57.723Z,70.97
2018-12-03T12:53:01.909Z,70.85
2018-12-03T12:54:06.190Z,70.79
2018-12-03T12:55:10.536Z,70.34
2018-12-03T12:56:14.710Z,70.85
2018-12-03T12:57:18.932Z,70.28
2018-12-03T12:58:22.989Z,70.36
2018-12-03T12:59:27.049Z,70.69
2018-12-03T13:00:31.158Z,70.15
2018-12-03T13:01:35.264Z,70.32
2018-12-03T13:02:39.386Z,70.89
2018-12-03T13:03:43.443Z,70.28
2018-12-03T13:04:47.613Z,70.60
2018-12-03T13:05:51.725Z,70.27
2018-12-03T13:06:55.969Z,70.14
2018-12-03T13:08:00.032Z,70.75
2018-12-03T13:09:06.757Z,70.09
2018-12-03T13:10:12.834Z,70.64
2018-12-03T13:11:17.146Z,70.38
2018-12-03T13:12:21.398Z,70.28
2018-12-03T13:13:25.459Z,69.92
2018-12-03T13:14:30.134Z,69.93
2018-12-03T13:15:34.401Z,70.49
2018-12-03T13:16:38.582Z,70.22
2018-12-03T13:17:44.609Z,70.62
2018-12-03T13:18:48.937Z,70.33
2018-12-03T13:19:53.097Z,70.61
2018-12-03T13:20:57.920Z,70.09
2018-12-03T13:22:02.072Z,70.10
2018-12-03T13:23:06.581Z,70.49
2018-12-03T13:24:10.749Z,70.05
2018-12-03T13:25:20.995Z,70.13
2018-12-03T13:26:25.302Z,70.52
2018-12-03T13:27:29.475Z,70.29
2018-12-03T13:28:34.286Z,70.01
2018-12-03T13:29:38.552Z,70.64
2018-12-03T13:30:42.842Z,70.13
2018-12-03T13:31:47.267Z,70.51
2018-12-03T13:32:51.489Z,70.48
2018-12-03T13:33:55.630Z,70.08
2018-12-03T13:34:59.938Z,70.72
2018-12-03T13:36:04.173Z,70.22
2018-12-03T13:37:08.279Z,70.15
2018-12-03T13:38:12.509Z,70.52
2018-12-03T13:39:16.851Z,70.86
2018-12-03T13:40:21.027Z,70.84
2018-12-03T13:41:25.161Z,70.95
2018-12-03T13:42:29.406Z,70.60
2018-12-03T13:43:33.801Z,70.32
2018-12-03T13:44:37.888Z,71.24
2018-12-03T13:45:42.127Z,71.29
2018-12-03T13:46:46.287Z,70.80
2018-12-03T13:47:50.828Z,71.10
2018-12-03T13:48:55.202Z,71.51
2018-12-03T13:49:59.275Z,71.17
2018-12-03T13:51:03.457Z,71.46
2018-12-03T13:52:07.616Z,70.84
2018-12-03T13:53:11.802Z,71.13
2018-12-03T13:54:15.999Z,71.12